createdAt,value
2022-10-15T00:01:36.121Z,99.90
2022-10-15T00:04:04.281Z,99.90
2022-10-15T00:06:32.803Z,99.90
2022-10-15T00:09:00.851Z,99.90
2022-10-15T00:11:30.285Z,99.90
2022-10-15T00:14:01.227Z,99.90
2022-10-15T00:16:30.927Z,99.90
2022-10-15T00:19:00.666Z,99.90
2022-10-15T00:21:29.152Z,99.90
2022-10-15T00:23:57.619Z,99.90
2022-10-15T00:26:27.872Z,99.90
2022-10-15T00:28:57.993Z,99.90
2022-10-15T00:31:29.328Z,99.90
2022-10-15T00:33:59.754Z,99.90
2022-10-15T00:36:29.438Z,99.90
2022-10-15T00:38:58.218Z,99.90
2022-10-15T00:41:29.519Z,99.90
2022-10-15T00:43:59.685Z,99.90
2022-10-15T00:46:33.011Z,99.90
2022-10-15T00:49:06.554Z,99.90
2022-10-15T00:51:42.960Z,99.90
2022-10-15T00:54:13.910Z,99.90
2022-10-15T00:56:44.771Z,99.90
2022-10-15T00:59:15.273Z,99.90
2022-10-15T01:01:44.959Z,99.90
2022-10-15T01:04:14.049Z,99.90
2022-10-15T01:06:42.370Z,99.90
2022-10-15T01:09:10.743Z,99.90
2022-10-15T01:11:42.810Z,99.90
2022-10-15T01:14:32.049Z,99.90
2022-10-15T01:17:07.513Z,99.90
2022-10-15T01:20:10.080Z,99.90
2022-10-15T01:22:51.607Z,99.90
2022-10-15T01:25:34.120Z,99.90
2022-10-15T01:28:14.744Z,99.90
2022-10-15T01:30:51.100Z,99.90
2022-10-15T01:33:29.674Z,99.90
2022-10-15T01:36:08.948Z,99.90
2022-10-15T01:38:47.467Z,99.90
2022-10-15T01:41:22.430Z,99.90
2022-10-15T01:44:01.045Z,99.90
2022-10-15T01:46:40.224Z,99.90
2022-10-15T01:49:14.555Z,99.90
2022-10-15T01:51:45.976Z,99.90
2022-10-15T01:54:18.590Z,99.90
2022-10-15T01:56:49.798Z,99.90
2022-10-15T01:59:24.052Z,99.90
2022-10-15T02:01:55.044Z,99.90
2022-10-15T02:04:27.721Z,99.90
2022-10-15T02:07:02.168Z,99.90
2022-10-15T02:09:40.495Z,99.90
2022-10-15T02:12:18.254Z,99.90
2022-10-15T02:14:54.740Z,99.90
2022-10-15T02:17:32.617Z,99.90
2022-10-15T02:20:06.900Z,99.90
2022-10-15T02:22:40.738Z,99.90
2022-10-15T02:25:13.980Z,99.90
2022-10-15T02:27:44.687Z,99.90
2022-10-15T02:30:14.585Z,99.90
2022-10-15T02:32:49.398Z,99.90
2022-10-15T02:35:22.811Z,99.90
2022-10-15T02:37:53.882Z,99.90
2022-10-15T02:40:27.332Z,99.90
2022-10-15T02:42:56.253Z,99.90
2022-10-15T02:45:24.474Z,99.90
2022-10-15T02:47:54.018Z,99.90
2022-10-15T02:50:22.002Z,99.90
2022-10-15T02:52:50.045Z,99.90
2022-10-15T02:55:19.193Z,99.90
2022-10-15T02:57:47.242Z,99.90
2022-10-15T03:00:15.992Z,99.90
2022-10-15T03:02:44.168Z,99.90
2022-10-15T03:05:14.535Z,99.90
2022-10-15T03:07:43.931Z,99.90
2022-10-15T03:10:12.276Z,99.90
2022-10-15T03:12:41.293Z,99.90
2022-10-15T03:15:10.487Z,99.90
2022-10-15T03:17:38.963Z,99.90
2022-10-15T03:20:07.678Z,99.90
2022-10-15T03:22:40.398Z,99.90
2022-10-15T03:25:08.887Z,99.90
2022-10-15T03:27:37.334Z,99.90
2022-10-15T03:30:14.590Z,99.90
2022-10-15T03:35:17.521Z,99.90
2022-10-15T03:37:47.189Z,99.90
2022-10-15T03:40:15.799Z,99.90
2022-10-15T03:42:45.422Z,99.90
2022-10-15T03:45:13.512Z,99.90
2022-10-15T03:47:41.763Z,99.90
2022-10-15T03:50:10.408Z,99.90
2022-10-15T03:52:38.868Z,99.90
2022-10-15T03:55:10.522Z,99.90
2022-10-15T03:57:39.604Z,99.90
2022-10-15T04:00:09.953Z,99.90
2022-10-15T04:02:40.544Z,99.90
2022-10-15T04:05:21.446Z,99.90
2022-10-15T04:07:54.942Z,99.90
2022-10-15T04:10:25.958Z,99.90
2022-10-15T04:12:54.276Z,99.90
2022-10-15T04:15:22.368Z,99.90
2022-10-15T04:17:56.402Z,99.90
2022-10-15T04:20:27.404Z,99.90
2022-10-15T04:22:59.773Z,99.90
2022-10-15T04:25:30.650Z,99.90
2022-10-15T04:27:59.170Z,99.90
2022-10-15T04:30:27.269Z,99.90
2022-10-15T04:33:00.535Z,99.90
2022-10-15T04:35:29.303Z,99.90
2022-10-15T04:38:11.689Z,99.90
2022-10-15T04:41:02.763Z,99.90
2022-10-15T04:43:43.402Z,99.90
2022-10-15T04:46:13.794Z,99.90
2022-10-15T04:48:43.373Z,99.90
2022-10-15T04:51:16.286Z,99.90
2022-10-15T04:54:04.885Z,99.90
2022-10-15T04:56:35.191Z,99.90
2022-10-15T04:59:07.332Z,99.90
2022-10-15T05:01:40.857Z,99.90
2022-10-15T05:04:12.471Z,99.90
2022-10-15T05:06:41.840Z,99.90
2022-10-15T05:09:19.776Z,99.90
2022-10-15T05:11:52.383Z,99.90
2022-10-15T05:14:21.195Z,99.90
2022-10-15T05:17:05.258Z,99.90
2022-10-15T05:19:39.218Z,99.90
2022-10-15T05:22:10.093Z,99.90
2022-10-15T05:24:45.086Z,99.90
2022-10-15T05:27:26.364Z,99.90
2022-10-15T05:29:54.525Z,99.90
2022-10-15T05:34:53.199Z,99.90
2022-10-15T05:37:22.826Z,99.90
2022-10-15T05:39:51.094Z,99.90
2022-10-15T05:42:19.286Z,99.90
2022-10-15T05:44:55.362Z,99.90
2022-10-15T05:47:23.732Z,99.90
2022-10-15T05:49:57.639Z,99.90
2022-10-15T05:52:30.441Z,99.90
2022-10-15T05:55:12.652Z,99.90
2022-10-15T05:57:41.165Z,99.90
2022-10-15T06:00:12.041Z,99.90
2022-10-15T06:02:40.395Z,99.90
2022-10-15T06:05:09.045Z,99.90
2022-10-15T06:07:37.301Z,99.90
2022-10-15T06:10:10.699Z,99.90
2022-10-15T06:12:40.995Z,99.90
2022-10-15T06:15:11.412Z,99.90
2022-10-15T06:17:39.409Z,99.90
2022-10-15T06:20:08.503Z,99.90
2022-10-15T06:25:06.318Z,99.90
2022-10-15T06:27:34.472Z,99.90
2022-10-15T06:30:02.611Z,99.90
2022-10-15T06:32:32.073Z,99.90
2022-10-15T06:35:00.117Z,99.90
2022-10-15T06:37:30.527Z,99.90
2022-10-15T06:39:59.868Z,99.90
2022-10-15T06:42:27.892Z,99.90
2022-10-15T06:44:56.795Z,99.90
2022-10-15T06:47:25.323Z,99.90
2022-10-15T06:49:55.089Z,99.90
2022-10-15T06:52:23.788Z,99.90
2022-10-15T06:54:51.849Z,99.90
2022-10-15T06:57:25.538Z,99.90
2022-10-15T06:59:54.047Z,99.90
2022-10-15T07:02:22.416Z,99.90
2022-10-15T07:04:50.593Z,99.90
2022-10-15T07:07:22.998Z,99.90
2022-10-15T07:09:53.483Z,99.90
2022-10-15T07:12:22.388Z,99.90
2022-10-15T07:14:50.774Z,99.90
2022-10-15T07:17:19.002Z,99.90
2022-10-15T07:19:47.093Z,99.90
2022-10-15T07:22:15.340Z,99.90
2022-10-15T07:24:44.781Z,99.90
2022-10-15T07:27:19.828Z,99.90
2022-10-15T07:29:47.876Z,99.90
2022-10-15T07:32:15.843Z,99.90
2022-10-15T07:34:44.180Z,99.90
2022-10-15T07:37:14.220Z,99.90
2022-10-15T07:39:42.293Z,99.90
2022-10-15T07:44:44.603Z,99.90
2022-10-15T07:47:15.338Z,99.90
2022-10-15T07:49:43.374Z,99.90
2022-10-15T07:52:11.382Z,99.90
2022-10-15T07:54:39.452Z,99.90
2022-10-15T07:57:07.899Z,99.90
2022-10-15T07:59:37.390Z,99.90
2022-10-15T08:02:05.528Z,99.90
2022-10-15T08:04:35.003Z,99.90
2022-10-15T08:07:05.743Z,99.90
2022-10-15T08:09:36.303Z,99.90
2022-10-15T08:12:06.046Z,99.90
2022-10-15T08:14:34.241Z,99.90
2022-10-15T08:17:05.006Z,99.90
2022-10-15T08:19:33.112Z,99.90
2022-10-15T08:22:01.225Z,99.90
2022-10-15T08:24:30.322Z,99.90
2022-10-15T08:26:58.837Z,99.90
2022-10-15T08:29:26.893Z,99.90
2022-10-15T08:31:55.892Z,99.90
2022-10-15T08:34:26.371Z,99.90
2022-10-15T08:36:54.390Z,99.90
2022-10-15T08:39:22.382Z,99.90
2022-10-15T08:41:54.528Z,99.90
2022-10-15T08:44:26.274Z,99.90
2022-10-15T08:46:59.918Z,99.90
2022-10-15T08:49:37.558Z,99.90
2022-10-15T08:52:17.815Z,99.90
2022-10-15T08:54:46.198Z,99.90
2022-10-15T08:57:23.936Z,99.90
2022-10-15T08:59:59.574Z,99.90
2022-10-15T09:02:35.132Z,99.90
2022-10-15T09:05:18.780Z,99.90
2022-10-15T09:07:54.730Z,99.90
2022-10-15T09:10:28.536Z,99.90
2022-10-15T09:13:00.873Z,99.90
2022-10-15T09:15:33.929Z,99.90
2022-10-15T09:18:01.969Z,99.90
2022-10-15T09:20:37.654Z,99.90
2022-10-15T09:23:16.292Z,99.90
2022-10-15T09:25:48.998Z,99.90
2022-10-15T09:28:19.613Z,99.90
2022-10-15T09:30:51.250Z,99.90
2022-10-15T09:33:31.895Z,99.90
2022-10-15T09:36:15.147Z,99.90
2022-10-15T09:38:53.159Z,99.90
2022-10-15T09:41:29.537Z,99.90
2022-10-15T09:44:01.748Z,99.90
2022-10-15T09:46:45.286Z,99.90
2022-10-15T09:49:19.018Z,99.90
2022-10-15T09:52:03.067Z,99.90
2022-10-15T09:54:43.886Z,99.90
2022-10-15T09:57:13.927Z,99.90
2022-10-15T09:59:54.072Z,99.90
2022-10-15T10:02:23.898Z,99.90
2022-10-15T10:04:52.824Z,99.90
2022-10-15T10:07:34.920Z,99.90
2022-10-15T10:10:05.674Z,99.90
2022-10-15T10:12:36.276Z,99.90
2022-10-15T10:15:07.105Z,99.90
2022-10-15T10:17:35.856Z,99.90
2022-10-15T10:20:17.933Z,99.90
2022-10-15T10:22:51.457Z,99.90
2022-10-15T10:25:36.181Z,99.90
2022-10-15T10:28:18.405Z,99.90
2022-10-15T10:30:54.281Z,99.90
2022-10-15T10:33:28.235Z,99.90
2022-10-15T10:35:57.359Z,99.90
2022-10-15T10:38:30.473Z,99.90
2022-10-15T10:41:05.225Z,99.90
2022-10-15T10:43:38.945Z,99.90
2022-10-15T10:46:19.328Z,99.90
2022-10-15T10:48:51.966Z,99.90
2022-10-15T10:51:22.552Z,99.90
2022-10-15T10:53:59.453Z,99.90
2022-10-15T10:56:29.813Z,99.90
2022-10-15T10:59:01.161Z,99.90
2022-10-15T11:01:30.355Z,99.90
2022-10-15T11:03:58.441Z,99.90
2022-10-15T11:06:53.558Z,99.90
2022-10-15T11:09:39.160Z,99.90
2022-10-15T11:12:17.311Z,99.90
2022-10-15T11:14:52.911Z,99.90
2022-10-15T11:17:37.190Z,99.90
2022-10-15T11:20:37.651Z,99.90
2022-10-15T11:23:17.620Z,99.90
2022-10-15T11:25:53.031Z,99.90
2022-10-15T11:28:36.882Z,99.90
2022-10-15T11:31:11.814Z,99.90
2022-10-15T11:33:52.450Z,99.80
2022-10-15T11:36:33.414Z,99.80
2022-10-15T11:39:18.697Z,99.90
2022-10-15T11:44:43.332Z,99.30
2022-10-15T11:47:22.806Z,99.50
2022-10-15T11:50:06.675Z,98.30
2022-10-15T11:52:49.073Z,98.60
2022-10-15T11:55:21.672Z,98.60
2022-10-15T11:57:54.962Z,99.00
2022-10-15T12:00:33.166Z,99.20
2022-10-15T12:03:06.462Z,99.30
2022-10-15T12:05:39.054Z,99.30
2022-10-15T12:08:11.297Z,99.20
2022-10-15T12:10:57.236Z,99.00
2022-10-15T12:13:33.994Z,99.00
2022-10-15T12:16:13.062Z,98.60
2022-10-15T12:18:47.070Z,98.60
2022-10-15T12:21:40.332Z,98.60
2022-10-15T12:24:53.468Z,98.60
2022-10-15T12:27:35.374Z,98.50
2022-10-15T12:30:23.123Z,98.30
2022-10-15T12:32:52.407Z,98.00
2022-10-15T12:35:24.754Z,97.90
2022-10-15T12:37:53.189Z,97.90
2022-10-15T12:40:30.230Z,97.60
2022-10-15T12:43:00.911Z,97.60
2022-10-15T12:45:39.212Z,97.70
2022-10-15T12:48:21.530Z,97.40
2022-10-15T12:50:49.691Z,97.10
2022-10-15T12:53:42.671Z,97.40
2022-10-15T12:56:21.738Z,97.20
2022-10-15T12:58:51.144Z,96.60
2022-10-15T13:01:31.772Z,96.60
2022-10-15T13:04:02.092Z,96.30
2022-10-15T13:06:35.504Z,95.60
2022-10-15T13:09:30.302Z,95.80
2022-10-15T13:12:00.203Z,95.70
2022-10-15T13:14:36.172Z,95.50
2022-10-15T13:17:14.522Z,95.80
2022-10-15T13:19:49.348Z,94.80
2022-10-15T13:22:24.260Z,94.20
2022-10-15T13:24:52.885Z,94.90
2022-10-15T13:27:25.201Z,95.50
2022-10-15T13:30:01.520Z,95.60
2022-10-15T13:32:34.213Z,95.80
2022-10-15T13:35:04.550Z,95.60
2022-10-15T13:37:35.816Z,95.80
2022-10-15T13:40:08.004Z,95.70
2022-10-15T13:42:37.109Z,95.90
2022-10-15T13:45:17.180Z,96.00
2022-10-15T13:47:51.044Z,96.20
2022-10-15T13:50:22.425Z,96.20
2022-10-15T13:52:55.074Z,96.40
2022-10-15T13:55:26.727Z,96.30
2022-10-15T13:58:01.286Z,96.30
2022-10-15T14:00:32.937Z,96.60
2022-10-15T14:03:26.696Z,96.80
2022-10-15T14:05:55.795Z,96.80
2022-10-15T14:08:27.555Z,96.90
2022-10-15T14:10:58.231Z,97.00
2022-10-15T14:13:27.143Z,97.00
2022-10-15T14:16:00.558Z,97.00
2022-10-15T14:18:34.566Z,97.10
2022-10-15T14:21:03.319Z,97.20
2022-10-15T14:23:32.655Z,97.30
2022-10-15T14:26:03.406Z,97.20
2022-10-15T14:28:33.764Z,97.30
2022-10-15T14:31:04.102Z,97.40
2022-10-15T14:33:42.835Z,97.50
2022-10-15T14:36:27.097Z,97.60
2022-10-15T14:38:56.322Z,97.80
2022-10-15T14:41:30.149Z,97.80
2022-10-15T14:44:03.038Z,97.90
2022-10-15T14:46:39.223Z,97.90
2022-10-15T14:49:20.317Z,98.00
2022-10-15T14:51:55.472Z,98.10
2022-10-15T14:54:31.108Z,98.20
2022-10-15T14:56:59.611Z,98.20
2022-10-15T14:59:32.955Z,98.20
2022-10-15T15:02:03.470Z,98.20
2022-10-15T15:04:43.960Z,98.20
2022-10-15T15:07:15.073Z,98.30
2022-10-15T15:09:44.248Z,98.20
2022-10-15T15:12:18.951Z,97.90
2022-10-15T15:14:48.072Z,97.80
2022-10-15T15:17:22.787Z,97.90
2022-10-15T15:19:54.715Z,97.40
2022-10-15T15:22:28.924Z,97.60
2022-10-15T15:24:57.967Z,97.90
2022-10-15T15:27:28.504Z,98.00
2022-10-15T15:29:59.105Z,98.00
2022-10-15T15:32:27.551Z,98.00
2022-10-15T15:34:58.821Z,97.80
2022-10-15T15:37:29.435Z,97.90
2022-10-15T15:39:59.221Z,97.80
2022-10-15T15:42:27.550Z,97.90
2022-10-15T15:44:55.886Z,98.00
2022-10-15T15:47:23.939Z,98.10
2022-10-15T15:49:52.174Z,98.10
2022-10-15T15:52:21.740Z,97.80
2022-10-15T15:54:49.908Z,97.90
2022-10-15T15:57:17.912Z,98.10
2022-10-15T15:59:45.898Z,98.20
2022-10-15T16:02:14.144Z,98.30
2022-10-15T16:04:42.257Z,98.50
2022-10-15T16:07:13.218Z,98.50
2022-10-15T16:09:43.113Z,98.60
2022-10-15T16:12:11.304Z,98.70
2022-10-15T16:14:39.331Z,98.70
2022-10-15T16:17:07.413Z,98.80
2022-10-15T16:19:35.420Z,98.90
2022-10-15T16:22:04.034Z,99.00
2022-10-15T16:24:32.441Z,99.10
2022-10-15T16:27:01.889Z,99.20
2022-10-15T16:29:29.913Z,99.30
2022-10-15T16:31:59.248Z,99.40
2022-10-15T16:34:27.462Z,99.40
2022-10-15T16:36:55.646Z,99.50
2022-10-15T16:39:23.899Z,99.60
2022-10-15T16:41:51.858Z,99.70
2022-10-15T16:44:21.280Z,99.70
2022-10-15T16:46:49.334Z,99.70
2022-10-15T16:49:17.348Z,99.70
2022-10-15T16:51:45.498Z,99.70
2022-10-15T16:54:15.416Z,99.80
2022-10-15T16:56:45.386Z,99.90
2022-10-15T16:59:15.861Z,99.90
2022-10-15T17:01:45.415Z,99.90
2022-10-15T17:04:13.569Z,99.90
2022-10-15T17:06:41.681Z,99.90
2022-10-15T17:09:09.895Z,99.90
2022-10-15T17:11:40.133Z,99.90
2022-10-15T17:14:09.764Z,99.90
2022-10-15T17:16:39.300Z,99.90
2022-10-15T17:19:09.681Z,99.90
2022-10-15T17:21:39.077Z,99.90
2022-10-15T17:24:11.878Z,99.90
2022-10-15T17:26:41.342Z,99.90
2022-10-15T17:29:20.115Z,99.90
2022-10-15T17:31:48.647Z,99.90
2022-10-15T17:34:19.197Z,99.90
2022-10-15T17:36:49.387Z,99.90
2022-10-15T17:39:23.127Z,99.90
2022-10-15T17:41:52.288Z,99.90
2022-10-15T17:44:20.386Z,99.90
2022-10-15T17:49:30.463Z,99.90
2022-10-15T17:51:58.651Z,99.90
2022-10-15T17:54:26.700Z,99.90
2022-10-15T17:56:54.774Z,99.90
2022-10-15T17:59:22.837Z,99.90
2022-10-15T18:01:58.312Z,99.90
2022-10-15T18:04:28.021Z,99.90
2022-10-15T18:06:57.797Z,99.90
2022-10-15T18:09:26.175Z,99.90
2022-10-15T18:11:56.509Z,99.90
2022-10-15T18:14:29.395Z,99.90
2022-10-15T18:16:57.759Z,99.90
2022-10-15T18:19:26.596Z,99.90
2022-10-15T18:21:55.514Z,99.90
2022-10-15T18:24:25.492Z,99.90
2022-10-15T18:26:54.017Z,99.90
2022-10-15T18:29:24.967Z,99.90
2022-10-15T18:31:57.462Z,99.90
2022-10-15T18:34:28.130Z,99.90
2022-10-15T18:36:56.167Z,99.90
2022-10-15T18:39:26.083Z,99.90
2022-10-15T18:41:54.283Z,99.90
2022-10-15T18:44:23.324Z,99.90
2022-10-15T18:46:51.888Z,99.90
2022-10-15T18:49:20.964Z,99.90
2022-10-15T18:51:51.629Z,99.90
2022-10-15T18:54:20.152Z,99.90
2022-10-15T18:56:50.039Z,99.90
2022-10-15T18:59:20.368Z,99.90
2022-10-15T19:01:50.200Z,99.90
2022-10-15T19:04:19.637Z,99.90
2022-10-15T19:06:49.857Z,99.90
2022-10-15T19:09:19.711Z,99.90
2022-10-15T19:11:50.922Z,99.90
2022-10-15T19:14:19.530Z,99.90
2022-10-15T19:16:48.375Z,99.90
2022-10-15T19:19:19.049Z,99.90
2022-10-15T19:21:48.161Z,99.90
2022-10-15T19:24:17.826Z,99.90
2022-10-15T19:26:46.545Z,99.90
2022-10-15T19:29:16.102Z,99.90
2022-10-15T19:31:49.889Z,99.90
2022-10-15T19:34:18.124Z,99.90
2022-10-15T19:36:47.875Z,99.90
2022-10-15T19:39:18.086Z,99.90
2022-10-15T19:41:47.825Z,99.90
2022-10-15T19:44:20.020Z,99.90
2022-10-15T19:46:48.152Z,99.90
2022-10-15T19:49:16.173Z,99.90
2022-10-15T19:51:44.402Z,99.90
2022-10-15T19:54:12.466Z,99.90
2022-10-15T19:56:40.649Z,99.90
2022-10-15T19:59:10.648Z,99.90
2022-10-15T20:01:40.222Z,99.90
2022-10-15T20:04:08.369Z,99.90
2022-10-15T20:06:39.224Z,99.90
2022-10-15T20:09:09.643Z,99.90
2022-10-15T20:11:38.253Z,99.90
2022-10-15T20:14:07.231Z,99.90
2022-10-15T20:16:35.228Z,99.90
2022-10-15T20:19:05.296Z,99.90
2022-10-15T20:21:34.057Z,99.90
2022-10-15T20:24:04.394Z,99.90
2022-10-15T20:26:33.256Z,99.90
2022-10-15T20:29:01.456Z,99.90
2022-10-15T20:31:32.958Z,99.90
2022-10-15T20:34:01.847Z,99.90
2022-10-15T20:36:31.360Z,99.90
2022-10-15T20:39:00.700Z,99.90
2022-10-15T20:41:29.790Z,99.90
2022-10-15T20:43:58.375Z,99.90
2022-10-15T20:46:53.258Z,99.90
2022-10-15T20:49:25.344Z,99.90
2022-10-15T20:51:54.910Z,99.90
2022-10-15T20:54:23.074Z,99.90
2022-10-15T20:56:52.714Z,99.90
2022-10-15T20:59:20.718Z,99.90
2022-10-15T21:01:48.827Z,99.90
2022-10-15T21:04:16.843Z,99.90
2022-10-15T21:06:44.942Z,99.90
2022-10-15T21:09:14.574Z,99.90
2022-10-15T21:11:42.962Z,99.90
2022-10-15T21:14:11.456Z,99.90
2022-10-15T21:16:39.668Z,99.90
2022-10-15T21:19:07.947Z,99.90
2022-10-15T21:21:36.077Z,99.90
2022-10-15T21:24:04.400Z,99.90
2022-10-15T21:26:34.097Z,99.90
2022-10-15T21:29:02.197Z,99.90
2022-10-15T21:31:30.446Z,99.90
2022-10-15T21:33:58.476Z,99.90
2022-10-15T21:36:28.058Z,99.90
2022-10-15T21:38:57.650Z,99.90
2022-10-15T21:41:26.947Z,99.90
2022-10-15T21:43:56.303Z,99.90
2022-10-15T21:46:24.959Z,99.90
2022-10-15T21:48:53.907Z,99.90
2022-10-15T21:51:24.737Z,99.90
2022-10-15T21:53:53.250Z,99.90
2022-10-15T21:56:21.791Z,99.90
2022-10-15T21:58:49.999Z,99.90
2022-10-15T22:01:22.989Z,99.90
2022-10-15T22:03:52.083Z,99.90
2022-10-15T22:06:21.379Z,99.90
2022-10-15T22:08:50.244Z,99.90
2022-10-15T22:11:20.264Z,99.90
2022-10-15T22:13:50.453Z,99.90
2022-10-15T22:16:21.042Z,99.90
2022-10-15T22:18:49.181Z,99.90
2022-10-15T22:21:18.886Z,99.90
2022-10-15T22:23:48.636Z,99.90
2022-10-15T22:26:18.171Z,99.90
2022-10-15T22:28:46.963Z,99.90
2022-10-15T22:31:17.591Z,99.90
2022-10-15T22:33:47.817Z,99.90
2022-10-15T22:36:17.998Z,99.90
2022-10-15T22:38:48.145Z,99.90
2022-10-15T22:41:16.827Z,99.90
2022-10-15T22:43:44.867Z,99.90
2022-10-15T22:46:13.186Z,99.90
2022-10-15T22:48:43.353Z,99.90
2022-10-15T22:51:14.378Z,99.90
2022-10-15T22:53:43.268Z,99.90
2022-10-15T22:56:14.319Z,99.90
2022-10-15T22:58:42.982Z,99.90
2022-10-15T23:01:13.010Z,99.90
2022-10-15T23:03:42.027Z,99.90
2022-10-15T23:06:10.233Z,99.90
2022-10-15T23:08:39.951Z,99.90
2022-10-15T23:11:09.956Z,99.90
2022-10-15T23:13:39.072Z,99.90
2022-10-15T23:16:08.779Z,99.90
2022-10-15T23:18:36.909Z,99.90
2022-10-15T23:21:06.572Z,99.90
2022-10-15T23:23:34.875Z,99.90
2022-10-15T23:26:04.377Z,99.90
2022-10-15T23:28:32.385Z,99.90
2022-10-15T23:31:00.598Z,99.90
2022-10-15T23:33:28.630Z,99.90
2022-10-15T23:36:05.591Z,99.90
2022-10-15T23:38:33.851Z,99.90
2022-10-15T23:41:04.852Z,99.90
2022-10-15T23:43:33.909Z,99.90
2022-10-15T23:46:01.961Z,99.90
2022-10-15T23:48:30.693Z,99.90
2022-10-15T23:51:02.505Z,99.90
2022-10-15T23:53:33.735Z,99.90
2022-10-15T23:56:04.448Z,99.90
2022-10-15T23:58:33.040Z,99.90
